Time;durP1;ratioP1;P1;durP2;ratioP2;P2;SDS_P1;SDS_P2;PMS_P1;PMS_P2;Temp;Humidity;BMP_temperature;BMP_pressure;BME280_temperature;BME280_humidity;BME280_pressure;Samples;Min_cycle;Max_cycle;Signal;HPM_P1;HPM_P2
2020/12/30 00:02:17;;;;;;;33.75;15.88;;;;;;;5.18;98.45;96878.63;5005037;28;20108;-64
2020/12/30 00:04:42;;;;;;;28.98;13.15;;;;;;;4.94;97.50;96819.00;5005043;28;20037;-63
2020/12/30 00:07:08;;;;;;;22.08;11.25;;;;;;;5.03;97.38;96871.03;5019847;28;20037;-61
2020/12/30 00:09:33;;;;;;;25.15;11.45;;;;;;;4.64;97.50;96815.59;5005057;28;20065;-62
2020/12/30 00:11:59;;;;;;;24.17;12.32;;;;;;;4.62;97.89;96834.34;5004850;28;20400;-63
2020/12/30 00:14:24;;;;;;;29.83;15.55;;;;;;;4.65;98.45;96819.13;5004972;28;20516;-62
2020/12/30 00:16:49;;;;;;;33.60;16.48;;;;;;;5.02;97.70;96880.41;5005026;28;20041;-62
2020/12/30 00:19:15;;;;;;;29.38;15.77;;;;;;;4.50;97.84;96795.88;5005018;28;20042;-63
2020/12/30 00:21:40;;;;;;;31.25;15.93;;;;;;;4.65;98.18;96816.38;5004734;28;20347;-63
2020/12/30 00:24:06;;;;;;;30.35;16.33;;;;;;;4.38;99.59;96828.72;5004398;28;20034;-63
2020/12/30 00:26:32;;;;;;;27.77;14.50;;;;;;;4.55;100.00;96877.16;5019868;28;20025;-62
2020/12/30 00:28:57;;;;;;;38.42;18.52;;;;;;;4.08;99.67;96790.75;5003127;28;20037;-63
2020/12/30 00:31:23;;;;;;;30.77;16.65;;;;;;;3.72;99.74;96730.31;5002894;28;20029;-62
2020/12/30 00:33:48;;;;;;;26.90;14.85;;;;;;;4.66;100.00;96872.88;5004693;28;20030;-62
2020/12/30 00:36:14;;;;;;;31.02;14.38;;;;;;;3.52;99.45;96688.09;5004830;28;20501;-62
2020/12/30 00:38:42;;;;;;;40.88;21.23;;;;;;;4.85;99.53;96886.09;5004608;28;20537;-63
2020/12/30 00:41:13;;;;;;;29.30;13.43;;;;;;;4.63;99.21;96863.34;5004911;28;20124;-62
2020/12/30 00:43:38;;;;;;;29.13;15.32;;;;;;;4.63;98.99;96890.78;5003070;28;20579;-62
2020/12/30 00:46:04;;;;;;;34.33;15.45;;;;;;;4.59;100.00;96884.38;5003054;28;20041;-63
2020/12/30 00:48:29;;;;;;;34.13;17.02;;;;;;;4.65;100.00;96877.53;5002679;28;20025;-63
2020/12/30 00:50:55;;;;;;;24.60;13.77;;;;;;;3.22;100.00;96653.72;5004864;28;20638;-64
2020/12/30 00:53:20;;;;;;;19.90;9.65;;;;;;;2.31;100.00;96486.88;5004995;28;20022;-62
2020/12/30 00:55:45;;;;;;;16.25;7.38;;;;;;;4.49;100.00;96826.38;5004787;28;20429;-63
2020/12/30 00:58:11;;;;;;;16.05;7.10;;;;;;;4.52;100.00;96873.13;5004872;28;20163;-63
2020/12/30 01:00:36;;;;;;;23.17;9.38;;;;;;;3.80;100.00;96765.84;5004639;28;20030;-63
2020/12/30 01:03:01;;;;;;;22.95;9.02;;;;;;;4.58;100.00;96888.25;5004292;28;20501;-62
2020/12/30 01:05:27;;;;;;;18.35;6.75;;;;;;;4.30;100.00;96832.34;5004603;28;20038;-62
2020/12/30 01:07:52;;;;;;;14.13;6.72;;;;;;;4.48;100.00;96874.94;5005015;28;20108;-63
2020/12/30 01:10:18;;;;;;;13.05;6.53;;;;;;;3.22;100.00;96656.44;5004473;28;20038;-63
2020/12/30 01:12:43;;;;;;;13.77;7.05;;;;;;;4.61;100.00;96876.63;5004149;28;20099;-62
2020/12/30 01:15:08;;;;;;;17.40;7.40;;;;;;;4.63;100.00;96868.06;5007980;28;20029;-63
2020/12/30 01:17:34;;;;;;;20.50;9.38;;;;;;;4.66;100.00;96867.38;5008292;28;20036;-62
2020/12/30 01:19:59;;;;;;;22.10;8.88;;;;;;;4.62;100.00;96860.94;5006474;28;20030;-63
2020/12/30 01:22:25;;;;;;;17.27;8.25;;;;;;;4.53;100.00;96863.78;5006406;28;20550;-63
2020/12/30 01:24:50;;;;;;;12.80;7.07;;;;;;;3.30;100.00;96649.31;5008091;28;20037;-63
2020/12/30 01:27:15;;;;;;;14.90;7.25;;;;;;;4.28;100.00;96809.94;5022807;28;20043;-62
2020/12/30 01:29:41;;;;;;;15.65;9.10;;;;;;;4.49;100.00;96834.59;5007682;28;20520;-63
2020/12/30 01:32:06;;;;;;;19.45;8.82;;;;;;;4.39;100.00;96830.31;5007713;28;20450;-63
2020/12/30 01:34:32;;;;;;;19.10;8.50;;;;;;;4.39;100.00;96830.31;5007955;28;20116;-62
2020/12/30 01:36:57;;;;;;;16.63;9.05;;;;;;;4.60;100.00;96842.09;5007625;28;20026;-63
2020/12/30 01:39:22;;;;;;;22.45;10.45;;;;;;;4.44;100.00;96821.91;5006199;28;20044;-63
2020/12/30 01:41:48;;;;;;;19.13;9.73;;;;;;;4.38;100.00;96839.69;5007720;28;20112;-63
2020/12/30 01:44:13;;;;;;;18.25;9.57;;;;;;;4.33;100.00;96858.31;5006083;28;20037;-63
2020/12/30 01:46:46;;;;;;;23.65;12.02;;;;;;;4.37;100.00;96827.13;5007411;28;20045;-63
2020/12/30 01:49:22;;;;;;;20.98;10.95;;;;;;;4.33;100.00;96830.91;5007390;28;20141;-63
2020/12/30 01:51:52;;;;;;;26.83;12.82;;;;;;;4.34;100.00;96830.56;5005836;28;20041;-63
2020/12/30 01:54:17;;;;;;;35.20;14.15;;;;;;;3.62;100.00;96695.13;5007492;28;20068;-63
2020/12/30 01:56:44;;;;;;;30.50;13.25;;;;;;;3.80;100.00;96741.19;5007071;28;20525;-63
2020/12/30 01:59:12;;;;;;;29.67;15.23;;;;;;;4.26;100.00;96828.69;4992702;28;20053;-62
2020/12/30 02:01:42;;;;;;;26.92;15.63;;;;;;;4.33;100.00;96841.84;5007205;28;20698;-63
2020/12/30 02:04:10;;;;;;;31.08;16.30;;;;;;;4.34;100.00;96818.78;5007397;28;20038;-63
2020/12/30 02:06:37;;;;;;;18.08;8.80;;;;;;;4.24;100.00;96814.50;5007786;28;20029;-62
2020/12/30 02:09:04;;;;;;;19.08;8.20;;;;;;;4.33;100.00;96809.75;5007380;28;20096;-62
2020/12/30 02:11:30;;;;;;;21.00;9.25;;;;;;;3.98;100.00;96748.13;5005545;28;20037;-63
2020/12/30 02:14:06;;;;;;;14.73;8.93;;;;;;;3.80;100.00;96730.25;5007543;28;20034;-63
2020/12/30 02:16:32;;;;;;;19.20;8.38;;;;;;;3.46;100.00;96664.81;5007229;28;20053;-62
2020/12/30 02:18:59;;;;;;;19.02;9.20;;;;;;;4.34;100.00;96778.47;5005815;28;20034;-64
2020/12/30 02:21:25;;;;;;;16.55;8.98;;;;;;;4.50;100.00;96826.03;5007257;28;20117;-62
2020/12/30 02:23:54;;;;;;;17.77;10.25;;;;;;;4.44;100.00;96819.16;5007201;28;20022;-64
2020/12/30 02:26:19;;;;;;;16.90;9.93;;;;;;;4.41;100.00;96817.09;5007120;28;20038;-62
2020/12/30 02:28:45;;;;;;;22.67;11.25;;;;;;;4.44;100.00;96810.16;5006992;28;20084;-62
2020/12/30 02:31:10;;;;;;;21.65;11.02;;;;;;;3.87;100.00;96719.53;5021656;28;20129;-64
2020/12/30 02:33:36;;;;;;;20.42;10.60;;;;;;;4.49;100.00;96813.47;5006556;28;20501;-62
2020/12/30 02:36:01;;;;;;;17.08;9.13;;;;;;;4.58;100.00;96816.16;5005204;28;20030;-63
2020/12/30 02:38:26;;;;;;;20.45;11.23;;;;;;;4.62;100.00;96817.88;5005166;28;20033;-63
2020/12/30 02:40:52;;;;;;;20.80;11.68;;;;;;;4.13;100.00;96768.66;5005137;28;20144;-63
2020/12/30 02:43:17;;;;;;;25.27;14.70;;;;;;;4.44;100.00;96793.69;5006761;28;20038;-63
2020/12/30 02:45:43;;;;;;;21.98;11.57;;;;;;;4.47;100.00;96810.25;5006482;28;20022;-62
2020/12/30 02:48:08;;;;;;;20.20;11.70;;;;;;;4.48;100.00;96814.63;5006406;28;20120;-63
2020/12/30 02:50:34;;;;;;;22.00;11.27;;;;;;;4.48;100.00;96806.41;5006204;28;20058;-62
2020/12/30 02:52:59;;;;;;;19.42;11.93;;;;;;;4.43;100.00;96809.34;5004643;28;20096;-64
2020/12/30 02:55:25;;;;;;;23.27;12.02;;;;;;;4.43;100.00;96808.53;5004307;28;20656;-64
2020/12/30 02:57:50;;;;;;;21.63;10.65;;;;;;;4.52;100.00;96815.53;5004843;28;20110;-63
2020/12/30 03:00:16;;;;;;;23.15;9.98;;;;;;;3.78;98.89;96705.13;5006557;28;20046;-63
2020/12/30 03:02:41;;;;;;;15.32;8.07;;;;;;;4.57;100.00;96790.66;5006092;28;20037;-62
2020/12/30 03:05:06;;;;;;;16.77;8.35;;;;;;;4.55;100.00;96795.66;5005880;28;20029;-63
2020/12/30 03:07:32;;;;;;;23.00;11.75;;;;;;;4.62;100.00;96784.97;5006160;28;20088;-63
2020/12/30 03:09:57;;;;;;;39.28;17.58;;;;;;;4.65;100.00;96784.28;5005986;28;20385;-62
2020/12/30 03:12:23;;;;;;;17.83;10.07;;;;;;;4.16;100.00;96688.50;5005942;28;20033;-62
2020/12/30 03:14:48;;;;;;;19.20;10.48;;;;;;;4.63;100.00;96781.06;5004132;28;20034;-62
2020/12/30 03:17:13;;;;;;;43.40;16.13;;;;;;;4.75;100.00;96780.31;5004306;28;20038;-62
2020/12/30 03:19:39;;;;;;;41.10;15.63;;;;;;;4.59;100.00;96771.94;5004244;28;20025;-63
2020/12/30 03:22:04;;;;;;;29.75;12.00;;;;;;;4.51;99.59;96786.53;5005627;28;20033;-63
2020/12/30 03:24:30;;;;;;;20.00;10.95;;;;;;;4.44;100.00;96789.00;5004321;28;20033;-63
2020/12/30 03:26:56;;;;;;;18.60;9.73;;;;;;;3.40;99.72;96692.72;5005796;28;20033;-63
2020/12/30 03:29:22;;;;;;;21.52;11.07;;;;;;;3.45;100.00;96671.41;5004295;28;20485;-62
2020/12/30 03:31:47;;;;;;;18.95;10.63;;;;;;;4.15;100.00;96782.81;5005676;28;20099;-63
2020/12/30 03:34:12;;;;;;;21.92;11.10;;;;;;;4.21;99.17;96790.50;5005458;28;20038;-62
2020/12/30 03:36:38;;;;;;;24.45;11.70;;;;;;;4.13;100.00;96805.09;5004861;28;20146;-63
2020/12/30 03:39:04;;;;;;;20.67;12.25;;;;;;;4.03;100.00;96775.34;5005686;28;20022;-62
2020/12/30 03:41:29;;;;;;;23.63;11.70;;;;;;;3.95;100.00;96765.25;5005410;28;20030;-64
2020/12/30 03:43:54;;;;;;;26.67;14.02;;;;;;;4.25;99.85;96791.44;5005556;28;20432;-62
2020/12/30 03:46:20;;;;;;;29.85;16.10;;;;;;;4.04;100.00;96763.25;5005002;28;20493;-61
2020/12/30 03:48:45;;;;;;;32.22;14.73;;;;;;;4.20;100.00;96783.44;5005620;28;20045;-63
2020/12/30 03:51:11;;;;;;;21.60;13.25;;;;;;;4.27;100.00;96782.88;5005463;28;20533;-62
2020/12/30 03:53:36;;;;;;;26.67;14.18;;;;;;;4.24;100.00;96784.34;5005504;28;20033;-63
2020/12/30 03:56:02;;;;;;;29.58;17.08;;;;;;;3.97;100.00;96757.50;5005267;28;20038;-62
2020/12/30 03:58:27;;;;;;;205.45;69.15;;;;;;;4.04;100.00;96724.91;5004075;28;20520;-63
2020/12/30 04:00:53;;;;;;;44.55;25.30;;;;;;;4.34;100.00;96772.16;5005651;28;20511;-63
2020/12/30 04:03:19;;;;;;;43.63;25.67;;;;;;;4.08;100.00;96742.25;5005309;28;20039;-62
2020/12/30 04:05:44;;;;;;;50.75;27.88;;;;;;;4.40;100.00;96755.19;5003668;28;20421;-62
2020/12/30 04:08:10;;;;;;;57.22;28.35;;;;;;;4.11;100.00;96736.09;5005186;28;20040;-63
2020/12/30 04:10:35;;;;;;;54.60;27.67;;;;;;;4.49;100.00;96775.09;5005310;28;20332;-62
2020/12/30 04:13:00;;;;;;;58.92;27.40;;;;;;;4.51;100.00;96783.78;5005198;28;20045;-62
2020/12/30 04:15:26;;;;;;;39.83;19.17;;;;;;;3.96;100.00;96712.06;5005157;28;20036;-62
2020/12/30 04:17:51;;;;;;;40.42;21.75;;;;;;;4.14;100.00;96729.94;5005171;28;20463;-63
2020/12/30 04:20:17;;;;;;;40.78;18.52;;;;;;;4.54;100.00;96802.31;5004970;28;20120;-62
2020/12/30 04:22:42;;;;;;;40.65;19.83;;;;;;;4.58;99.68;96789.50;5005003;28;20121;-62
2020/12/30 04:25:07;;;;;;;37.33;20.65;;;;;;;4.66;99.46;96783.13;5003300;28;20156;-61
2020/12/30 04:27:33;;;;;;;36.53;21.10;;;;;;;4.68;99.27;96782.00;5004814;28;20060;-63
2020/12/30 04:29:58;;;;;;;32.20;17.30;;;;;;;4.61;99.39;96783.38;5003191;28;20045;-63
2020/12/30 04:32:24;;;;;;;33.17;18.98;;;;;;;4.65;98.82;96776.06;5003175;28;20130;-63
2020/12/30 04:34:49;;;;;;;52.50;29.45;;;;;;;4.64;99.99;96774.47;5004865;28;20481;-64
2020/12/30 04:37:15;;;;;;;35.75;18.70;;;;;;;4.50;100.00;96790.38;5004688;28;20069;-62
2020/12/30 04:39:41;;;;;;;35.95;22.10;;;;;;;3.91;100.00;96752.56;5004509;28;20145;-62
2020/12/30 04:42:07;;;;;;;50.15;28.23;;;;;;;4.53;100.00;96797.97;5004654;28;20049;-63
2020/12/30 04:44:34;;;;;;;55.42;30.80;;;;;;;4.55;100.00;96768.25;5004745;28;20034;-63
2020/12/30 04:47:02;;;;;;;54.60;28.15;;;;;;;4.02;100.00;96697.03;5004644;28;20041;-65
2020/12/30 04:49:28;;;;;;;50.88;26.42;;;;;;;4.06;100.00;96684.22;5008777;28;20033;-65
2020/12/30 04:51:54;;;;;;;39.30;20.13;;;;;;;4.68;100.00;96761.66;5008293;28;20527;-64
2020/12/30 04:54:21;;;;;;;27.73;14.98;;;;;;;4.57;100.00;96776.13;5008500;28;20038;-63
2020/12/30 04:57:18;;;;;;;26.48;12.68;;;;;;;4.68;100.00;96782.00;5008525;28;20694;-64
2020/12/30 04:59:45;;;;;;;28.70;13.60;;;;;;;4.74;100.00;96780.66;5007413;28;20077;-63
2020/12/30 05:02:12;;;;;;;27.70;14.73;;;;;;;4.82;100.00;96777.00;5008564;28;20041;-64
2020/12/30 05:04:39;;;;;;;31.08;16.70;;;;;;;4.85;100.00;96792.78;5008328;28;20121;-64
2020/12/30 05:07:13;;;;;;;42.78;22.98;;;;;;;4.46;100.00;96731.88;5023259;28;20030;-64
2020/12/30 05:09:40;;;;;;;;;;;;;;;4.82;100.00;96777.00;5008750;28;20116;-64
2020/12/30 05:12:14;;;;;;;49.58;25.55;;;;;;;4.78;100.00;96770.59;5023458;28;20427;-64
2020/12/30 05:14:39;;;;;;;;;;;;;;;4.76;100.00;96778.38;5008830;28;20033;-64
2020/12/30 05:17:06;;;;;;;63.65;33.15;;;;;;;4.57;100.00;96754.19;5008482;28;19948;-64
2020/12/30 05:19:32;;;;;;;51.33;27.73;;;;;;;4.59;100.00;96802.09;5006916;28;20056;-64
2020/12/30 05:21:57;;;;;;;35.50;21.05;;;;;;;4.59;99.24;96785.63;5007636;28;20041;-63
2020/12/30 05:24:23;;;;;;;26.00;15.38;;;;;;;4.40;98.72;96777.13;5022896;28;20033;-63
2020/12/30 05:26:48;;;;;;;26.92;11.50;;;;;;;4.43;100.00;96803.84;5022622;28;20263;-64
2020/12/30 05:29:16;;;;;;;22.23;12.15;;;;;;;4.02;100.00;96753.75;5007938;28;20096;-64
2020/12/30 05:31:41;;;;;;;26.02;11.40;;;;;;;4.32;100.00;96802.66;5022572;28;20488;-64
2020/12/30 05:34:07;;;;;;;23.95;10.80;;;;;;;3.91;100.00;96741.59;5007820;28;20104;-63
2020/12/30 05:36:32;;;;;;;33.50;14.50;;;;;;;4.36;100.00;96811.81;5007493;28;20102;-63
2020/12/30 05:38:58;;;;;;;56.83;26.40;;;;;;;4.37;100.00;96799.72;5007435;28;20173;-61
2020/12/30 05:41:23;;;;;;;64.53;31.80;;;;;;;4.00;100.00;96745.88;5007649;28;20104;-62
2020/12/30 05:43:49;;;;;;;52.90;25.88;;;;;;;4.40;100.00;96796.31;5007548;28;20033;-63
2020/12/30 05:46:27;;;;;;;44.00;23.27;;;;;;;3.67;100.00;96769.66;5007814;28;20048;-63
2020/12/30 05:48:53;;;;;;;38.88;22.73;;;;;;;4.58;100.00;96811.44;5022369;28;20065;-64
2020/12/30 05:51:29;;;;;;;33.72;19.75;;;;;;;4.57;100.00;96809.84;5007324;28;20041;-63
2020/12/30 05:54:13;;;;;;;50.60;26.25;;;;;;;4.65;100.00;96805.41;5007401;28;20046;-63
2020/12/30 05:56:39;;;;;;;28.83;15.88;;;;;;;4.29;100.00;96770.44;5006140;28;20085;-63
2020/12/30 05:59:06;;;;;;;29.58;14.13;;;;;;;4.46;100.00;96800.44;5005848;28;20073;-64
2020/12/30 06:01:34;;;;;;;35.35;17.23;;;;;;;4.56;100.00;96819.22;5006534;28;20069;-63
2020/12/30 06:04:15;;;;;;;35.05;22.65;;;;;;;4.25;100.00;96757.75;5005854;28;20508;-64
2020/12/30 06:06:43;;;;;;;48.55;26.50;;;;;;;4.66;100.00;96818.78;5004281;28;20500;-62
2020/12/30 06:09:14;;;;;;;42.90;20.77;;;;;;;4.14;100.00;96729.16;5006140;28;20091;-61
2020/12/30 06:11:52;;;;;;;31.38;15.05;;;;;;;4.43;100.00;96768.22;5006011;28;20102;-62
2020/12/30 06:14:20;;;;;;;28.75;14.52;;;;;;;4.32;100.00;96736.88;5006089;28;20072;-61
2020/12/30 06:16:46;;;;;;;29.70;15.63;;;;;;;4.59;100.00;96769.19;5004588;28;20468;-62
2020/12/30 06:19:13;;;;;;;44.47;19.92;;;;;;;4.92;100.00;96814.97;5006288;28;20030;-63
2020/12/30 06:21:46;;;;;;;28.65;14.30;;;;;;;4.95;100.00;96804.13;5005976;28;20042;-63
2020/12/30 06:24:15;;;;;;;25.58;14.40;;;;;;;5.00;100.00;96801.16;5006208;28;20406;-62
2020/12/30 06:26:44;;;;;;;24.65;11.27;;;;;;;5.06;100.00;96805.28;5020872;28;20492;-62
2020/12/30 06:29:13;;;;;;;41.90;23.23;;;;;;;5.05;100.00;96792.72;5005858;28;20042;-63
2020/12/30 06:31:43;;;;;;;60.17;32.75;;;;;;;5.39;100.00;96814.25;5005757;28;20520;-61
2020/12/30 06:34:08;;;;;;;131.48;65.82;;;;;;;5.52;98.71;96806.81;5005660;28;20578;-62
2020/12/30 06:36:34;;;;;;;176.40;96.97;;;;;;;5.07;97.15;96710.03;5019997;28;20026;-63
2020/12/30 06:38:59;;;;;;;195.98;103.22;;;;;;;5.79;96.35;96806.91;4999338;28;20084;-66
2020/12/30 06:41:53;;;;;;;183.82;101.85;;;;;;;5.08;95.86;96744.56;5004201;28;20128;-63
2020/12/30 06:44:37;;;;;;;98.40;53.42;;;;;;;6.11;95.64;96807.94;5005110;28;20037;-67
2020/12/30 06:47:05;;;;;;;52.25;27.08;;;;;;;6.22;95.83;96809.03;5012769;28;20129;-61
2020/12/30 06:49:30;;;;;;;45.05;24.35;;;;;;;5.17;96.11;96608.00;5004773;28;20026;-65
2020/12/30 06:51:56;;;;;;;47.20;23.52;;;;;;;5.87;95.69;96703.53;5004883;28;20477;-62
2020/12/30 06:54:21;;;;;;;46.05;23.63;;;;;;;6.58;95.99;96778.66;5005319;28;20076;-66
2020/12/30 06:56:48;;;;;;;35.70;18.85;;;;;;;6.90;94.54;96802.34;4981908;28;672837;-63
2020/12/30 06:59:17;;;;;;;23.73;15.05;;;;;;;7.09;93.69;96805.22;5005561;28;20121;-64
2020/12/30 07:01:55;;;;;;;41.13;21.23;;;;;;;6.29;92.43;96681.94;5004380;28;20104;-65
2020/12/30 07:04:25;;;;;;;32.20;19.85;;;;;;;7.58;92.60;96817.50;5005276;28;20115;-64
2020/12/30 07:06:54;;;;;;;33.28;21.33;;;;;;;7.85;90.02;96806.72;5005521;28;20044;-63
2020/12/30 07:09:38;;;;;;;21.98;12.48;;;;;;;8.11;87.34;96812.44;5003372;28;20029;-61
2020/12/30 07:12:07;;;;;;;21.45;10.57;;;;;;;8.03;85.79;96753.53;5005982;28;20037;-63
2020/12/30 07:14:35;;;;;;;20.42;10.95;;;;;;;8.05;86.05;96731.94;5005393;28;20103;-66
2020/12/30 07:17:02;;;;;;;20.75;11.93;;;;;;;8.72;84.78;96800.41;5005945;28;20444;-69
2020/12/30 07:19:34;;;;;;;25.98;12.95;;;;;;;8.90;84.70;96823.63;5005235;28;20042;-63
2020/12/30 07:22:01;;;;;;;33.33;14.75;;;;;;;8.97;84.03;96801.69;5002507;28;20113;-63
2020/12/30 07:24:41;;;;;;;39.25;23.17;;;;;;;9.29;82.20;96793.16;5004332;28;20504;-63
2020/12/30 07:27:09;;;;;;;38.35;21.50;;;;;;;9.28;83.52;96816.47;5004955;28;20049;-64
2020/12/30 07:29:35;;;;;;;41.10;24.55;;;;;;;9.16;83.50;96809.13;5005730;28;20405;-64
2020/12/30 07:32:02;;;;;;;45.03;25.15;;;;;;;8.49;82.97;96724.19;5004608;28;20033;-63
2020/12/30 07:34:30;;;;;;;44.22;27.02;;;;;;;9.16;82.69;96814.66;5005048;28;20030;-65
2020/12/30 07:36:56;;;;;;;46.30;25.63;;;;;;;8.85;83.38;96765.16;5004510;28;20339;-62
2020/12/30 07:39:27;;;;;;;44.42;25.95;;;;;;;9.15;83.14;96802.78;5003580;28;20459;-62
2020/12/30 07:41:53;;;;;;;43.28;25.35;;;;;;;8.95;82.68;96764.53;5004372;28;20022;-63
2020/12/30 07:44:18;;;;;;;41.85;24.73;;;;;;;9.31;82.84;96812.97;5003734;28;20050;-65
2020/12/30 07:46:44;;;;;;;42.80;25.95;;;;;;;8.90;82.60;96762.06;5004649;28;20038;-66
2020/12/30 07:49:22;;;;;;;46.40;29.63;;;;;;;9.20;83.69;96809.97;5005449;28;20041;-66
2020/12/30 07:51:56;;;;;;;54.58;31.35;;;;;;;9.18;82.88;96787.47;5019634;28;20519;-67
2020/12/30 07:54:23;;;;;;;49.03;28.88;;;;;;;9.44;82.98;96809.63;5004119;28;20837;-64
2020/12/30 07:56:50;;;;;;;61.05;38.58;;;;;;;9.04;83.62;96696.03;5004186;28;20137;-68
2020/12/30 07:59:20;;;;;;;54.90;35.35;;;;;;;9.96;81.59;96803.38;5002330;28;20044;-69
2020/12/30 08:02:05;;;;;;;33.05;21.77;;;;;;;9.49;81.45;96762.34;5004117;28;20033;-69
2020/12/30 08:04:32;;;;;;;43.08;27.73;;;;;;;9.80;82.72;96808.28;5002564;28;20113;-71
2020/12/30 08:06:59;;;;;;;231.27;147.18;;;;;;;9.92;81.90;96814.41;5002598;28;20489;-68
2020/12/30 08:09:27;;;;;;;76.68;49.05;;;;;;;10.08;82.41;96804.00;5004492;28;20041;-66
2020/12/30 08:12:14;;;;;;;62.78;39.85;;;;;;;10.43;81.29;96810.03;5012513;28;20232;-65
2020/12/30 08:14:44;;;;;;;70.30;43.90;;;;;;;10.72;80.06;96791.03;5022417;28;20080;-64
2020/12/30 08:17:12;;;;;;;52.47;32.75;;;;;;;11.19;78.52;96799.50;4985476;28;20030;-63
2020/12/30 08:19:43;;;;;;;43.25;28.73;;;;;;;11.26;78.23;96796.78;5003152;28;20129;-63
2020/12/30 08:22:18;;;;;;;37.15;21.55;;;;;;;11.28;78.71;96798.00;5003732;28;20451;-65
2020/12/30 08:24:50;;;;;;;33.75;19.08;;;;;;;11.54;78.45;96794.28;5004390;28;20037;-63
2020/12/30 08:27:18;;;;;;;47.78;24.95;;;;;;;11.58;78.74;96782.03;5002743;28;20527;-66
2020/12/30 08:29:45;;;;;;;40.55;23.10;;;;;;;10.81;78.27;96611.44;5004648;28;20033;-65
2020/12/30 08:32:33;;;;;;;37.15;21.17;;;;;;;12.17;77.89;96778.19;5004121;28;20441;-63
2020/12/30 08:35:10;;;;;;;44.60;21.13;;;;;;;12.36;77.59;96785.41;5004596;28;20042;-64
2020/12/30 08:37:46;;;;;;;32.65;16.60;;;;;;;12.48;76.80;96791.44;5004452;28;20037;-62
2020/12/30 08:40:24;;;;;;;32.50;16.05;;;;;;;12.42;77.46;96779.13;5003206;28;20040;-64
2020/12/30 08:43:12;;;;;;;34.42;16.08;;;;;;;12.42;77.88;96783.88;5004470;28;20033;-65
2020/12/30 08:45:49;;;;;;;32.33;16.60;;;;;;;12.59;77.95;96778.41;5004259;28;20473;-66
2020/12/30 08:48:19;;;;;;;36.67;20.25;;;;;;;12.45;77.87;96756.09;5002489;28;20432;-66
2020/12/30 08:50:46;;;;;;;40.88;23.85;;;;;;;12.63;77.50;96770.88;5003509;28;20042;-68
2020/12/30 08:53:13;;;;;;;40.60;17.92;;;;;;;12.22;76.58;96680.59;5002614;28;20034;-64
2020/12/30 08:55:39;;;;;;;38.78;22.98;;;;;;;13.02;76.01;96773.84;5002531;28;20529;-65
2020/12/30 08:58:04;;;;;;;32.67;16.15;;;;;;;10.76;75.29;96459.44;5003863;28;20076;-68
2020/12/30 09:00:35;;;;;;;35.88;14.90;;;;;;;11.54;79.41;96650.06;5003948;28;20030;-63
2020/12/30 09:03:16;;;;;;;35.42;15.80;;;;;;;12.57;77.41;96725.19;5003731;28;20721;-69
2020/12/30 09:05:51;;;;;;;27.73;15.75;;;;;;;13.12;75.60;96746.03;5001983;28;20476;-65
2020/12/30 09:08:25;;;;;;;29.75;17.75;;;;;;;13.34;75.63;96749.69;5003924;28;20191;-65
2020/12/30 09:10:52;;;;;;;30.33;14.45;;;;;;;13.53;73.76;96750.09;5017603;28;20437;-61
2020/12/30 09:13:19;;;;;;;24.95;12.93;;;;;;;13.62;72.26;96747.69;5003257;28;20049;-71
2020/12/30 09:15:47;;;;;;;33.40;16.33;;;;;;;13.44;72.82;96752.47;5003928;28;20033;-65
2020/12/30 09:18:13;;;;;;;28.65;16.45;;;;;;;12.22;74.61;96602.84;5003251;28;20319;-71
2020/12/30 09:20:40;;;;;;;29.48;16.83;;;;;;;13.24;73.54;96762.38;5003644;28;20109;-61
2020/12/30 09:23:06;;;;;;;31.70;16.80;;;;;;;13.40;72.89;96765.56;5004168;28;20068;-63
2020/12/30 09:25:38;;;;;;;32.45;17.63;;;;;;;13.35;73.35;96760.41;5003703;28;20041;-70
2020/12/30 09:28:21;;;;;;;23.13;16.45;;;;;;;12.93;73.55;96701.88;4296730;28;20004027;-68
2020/12/30 09:30:48;;;;;;;22.03;14.07;;;;;;;12.84;74.88;96720.13;4991805;28;20543;-66
2020/12/30 09:33:22;;;;;;;32.25;16.45;;;;;;;13.12;74.46;96736.94;5003561;28;20447;-66
2020/12/30 09:35:48;;;;;;;25.90;14.73;;;;;;;12.65;74.50;96668.47;5004483;28;20030;-66
2020/12/30 09:38:18;;;;;;;28.30;16.50;;;;;;;12.89;74.73;96684.41;5007701;28;20656;-65
2020/12/30 09:40:46;;;;;;;26.10;15.05;;;;;;;13.30;74.84;96729.41;5006825;28;20042;-62
2020/12/30 09:43:19;;;;;;;28.52;16.38;;;;;;;12.96;74.57;96670.50;5007563;28;20037;-64
2020/12/30 09:45:46;;;;;;;30.77;16.50;;;;;;;13.29;74.84;96723.03;5005877;28;20042;-63
2020/12/30 09:48:17;;;;;;;28.10;15.27;;;;;;;13.16;74.90;96707.94;5007319;28;20045;-63
2020/12/30 09:50:45;;;;;;;26.10;13.63;;;;;;;12.55;74.68;96599.75;5006737;28;20065;-65
2020/12/30 09:53:11;;;;;;;29.00;15.38;;;;;;;13.19;74.08;96684.88;5006878;28;20041;-64
2020/12/30 09:55:36;;;;;;;29.27;13.93;;;;;;;12.78;73.73;96596.63;5004037;28;20050;-65
2020/12/30 09:58:03;;;;;;;31.30;14.23;;;;;;;13.76;73.69;96696.81;5007144;28;20036;-65
2020/12/30 10:00:29;;;;;;;24.50;13.38;;;;;;;14.15;71.85;96713.44;5007634;28;20041;-64
2020/12/30 10:02:55;;;;;;;22.98;12.80;;;;;;;14.19;71.93;96691.97;5007108;28;20042;-63
2020/12/30 10:05:20;;;;;;;20.10;11.05;;;;;;;13.95;71.44;96637.09;5006773;28;20120;-64
2020/12/30 10:07:46;;;;;;;19.92;11.10;;;;;;;14.30;70.49;96676.03;5007123;28;20456;-64
2020/12/30 10:10:11;;;;;;;24.45;10.70;;;;;;;14.28;70.50;96667.28;5006901;28;20038;-64
2020/12/30 10:12:40;;;;;;;26.33;11.57;;;;;;;14.31;70.66;96686.78;5006824;28;20484;-65
2020/12/30 10:15:10;;;;;;;23.52;9.20;;;;;;;14.20;71.20;96687.97;5006844;28;20037;-65
2020/12/30 10:17:37;;;;;;;14.82;8.38;;;;;;;13.82;73.59;96680.47;5006629;28;20033;-64
2020/12/30 10:20:13;;;;;;;12.30;7.30;;;;;;;13.32;73.07;96636.03;5007085;28;20033;-64
2020/12/30 10:22:39;;;;;;;14.75;7.63;;;;;;;13.42;72.29;96618.50;5005405;28;20559;-64
2020/12/30 10:25:08;;;;;;;14.30;7.38;;;;;;;13.55;73.28;96675.34;5006930;28;20038;-64
2020/12/30 10:27:34;;;;;;;20.48;7.18;;;;;;;13.18;75.47;96672.16;5006764;28;20108;-64
2020/12/30 10:29:59;;;;;;;18.23;6.70;;;;;;;13.48;74.50;96671.78;5006689;28;20144;-65
2020/12/30 10:32:25;;;;;;;16.00;6.07;;;;;;;13.58;74.05;96680.13;5005190;28;20113;-65
2020/12/30 10:34:50;;;;;;;22.05;7.60;;;;;;;13.20;74.13;96608.59;5007144;28;20030;-65
2020/12/30 10:37:17;;;;;;;19.73;6.90;;;;;;;13.67;74.16;96677.72;5006921;28;20514;-65
2020/12/30 10:39:44;;;;;;;48.78;19.63;;;;;;;13.78;73.67;96666.59;5006787;28;20041;-65
2020/12/30 10:42:10;;;;;;;17.65;7.35;;;;;;;13.58;74.25;96641.16;5006750;28;20296;-65
2020/12/30 10:44:36;;;;;;;15.30;6.38;;;;;;;13.97;73.26;96657.00;5006209;28;20045;-65
2020/12/30 10:47:01;;;;;;;15.40;5.47;;;;;;;13.96;72.15;96638.72;5006047;28;20536;-65
2020/12/30 10:49:27;;;;;;;27.45;10.30;;;;;;;13.90;72.48;96612.44;5006647;28;20042;-65
2020/12/30 10:51:52;;;;;;;26.67;13.73;;;;;;;14.22;71.78;96646.56;5006103;28;20038;-65
2020/12/30 10:54:18;;;;;;;18.38;7.30;;;;;;;14.06;71.19;96593.31;5006372;28;20375;-65
2020/12/30 10:56:47;;;;;;;14.32;6.82;;;;;;;14.13;70.81;96654.56;5005626;28;20057;-65
2020/12/30 10:59:14;;;;;;;10.27;6.00;;;;;;;14.35;71.48;96639.41;5005901;28;20025;-65
2020/12/30 11:01:39;;;;;;;22.70;12.40;;;;;;;14.42;71.43;96634.59;5006307;28;20116;-65
2020/12/30 11:04:04;;;;;;;33.05;18.48;;;;;;;14.54;69.84;96636.13;5005944;28;20018;-65
2020/12/30 11:06:30;;;;;;;150.10;79.05;;;;;;;14.58;70.17;96642.47;5006165;28;20029;-65
2020/12/30 11:08:55;;;;;;;68.05;38.38;;;;;;;14.70;70.38;96639.22;5006109;28;20026;-65
2020/12/30 11:11:21;;;;;;;49.80;28.27;;;;;;;14.47;69.85;96569.25;5006233;28;20468;-64
2020/12/30 11:13:46;;;;;;;25.65;11.23;;;;;;;14.49;68.46;96550.16;5006306;28;20030;-64
2020/12/30 11:16:11;;;;;;;21.95;10.00;;;;;;;15.14;67.93;96608.66;5006165;28;20042;-65
2020/12/30 11:18:37;;;;;;;22.15;11.40;;;;;;;14.84;67.06;96577.78;5006063;28;20108;-65
2020/12/30 11:21:02;;;;;;;25.83;12.95;;;;;;;14.88;67.86;96612.81;5004595;28;20149;-64
2020/12/30 11:23:28;;;;;;;36.83;20.23;;;;;;;15.00;67.76;96614.34;5006118;28;20437;-66
2020/12/30 11:25:54;;;;;;;29.80;13.90;;;;;;;15.03;68.08;96621.88;5004408;28;20045;-65